Argyle Airport

Airport
ICAO code: 
YARG
IATA Code: 
GYL
Summary
ICAO Region: 
APAC
Territory: 
Location: 
Argyle, Western Australia
Serving: 
Argyle
Elevation: 
522 ft
Coordinates: 
Aerial View: 
16° 38' 12.84" S, 128° 27' 3.6" E
Metar
Observation
YARG 290300Z AUTO 04007KT 020V170 9999 // NCD 37/10 Q1009
Station
Argyle Airport
Date/Time
2021-11-29 03:00:00
Wind direction
40°
Wind speed
07 kts
Lowest cloud amount
no clouds detected
Temperature
37°C
Dew point
10°C
Humidity
19%
QNH
1009 hPa
Weather condition
n/a

Runways

Designator Length Width Surface Rops
1/19 2300 30 ASP No/No
Airport map: 
Aerial View: 

SKYbrary Partners:

Safety knowledge contributed by: